Time;durP1;ratioP1;P1;durP2;ratioP2;P2;SDS_P1;SDS_P2;PMS_P1;PMS_P2;Temp;Humidity;BMP_temperature;BMP_pressure;BME280_temperature;BME280_humidity;BME280_pressure;Samples;Min_cycle;Max_cycle;Signal;HPM_P1;HPM_P2
2022/06/10 00:02:18;;;;;;;7.90;1.92;;;;;;;;;;5323134;28;20016;-71
2022/06/10 00:04:49;;;;;;;7.70;1.92;;;;;;;;;;5325015;28;20415;-70
2022/06/10 00:07:20;;;;;;;14.03;1.97;;;;;;;;;;5324220;28;20096;-71
2022/06/10 00:09:51;;;;;;;7.78;1.73;;;;;;;;;;5324069;28;20262;-71
2022/06/10 00:12:22;;;;;;;8.33;2.10;;;;;;;;;;5324330;28;20459;-70
2022/06/10 00:14:54;;;;;;;9.90;2.30;;;;;;;;;;5324754;28;20265;-70
2022/06/10 00:17:25;;;;;;;7.30;1.65;;;;;;;;;;5323049;28;20430;-71
2022/06/10 00:19:56;;;;;;;9.40;2.20;;;;;;;;;;5324923;28;20031;-70
2022/06/10 00:22:27;;;;;;;8.48;2.03;;;;;;;;;;5324275;28;20071;-70
2022/06/10 00:24:59;;;;;;;10.80;1.98;;;;;;;;;;5324099;28;20031;-71
2022/06/10 00:27:30;;;;;;;10.73;1.60;;;;;;;;;;5323979;28;20030;-71
2022/06/10 00:30:02;;;;;;;11.93;2.20;;;;;;;;;;5324214;28;20008;-70
2022/06/10 00:32:33;;;;;;;11.02;2.10;;;;;;;;;;5323365;28;20072;-70
2022/06/10 00:35:05;;;;;;;9.82;2.00;;;;;;;;;;5324414;28;20530;-70
2022/06/10 00:37:36;;;;;;;11.15;2.05;;;;;;;;;;5323331;28;20015;-70
2022/06/10 00:40:08;;;;;;;13.02;2.05;;;;;;;;;;5324057;28;20108;-70
2022/06/10 00:42:40;;;;;;;9.93;1.88;;;;;;;;;;5324039;28;20103;-70
2022/06/10 00:45:29;;;;;;;12.30;1.95;;;;;;;;;;5323439;28;20149;-70
2022/06/10 00:48:01;;;;;;;11.05;1.90;;;;;;;;;;5324167;28;20055;-70
2022/06/10 00:50:32;;;;;;;8.07;1.35;;;;;;;;;;5323829;28;20046;-70
2022/06/10 00:53:05;;;;;;;10.88;1.70;;;;;;;;;;5323565;28;20111;-70
2022/06/10 00:55:37;;;;;;;12.52;1.95;;;;;;;;;;5323931;28;20019;-70
2022/06/10 00:58:15;;;;;;;9.68;1.50;;;;;;;;;;5323847;28;20056;-70
2022/06/10 01:00:47;;;;;;;11.10;1.35;;;;;;;;;;5323820;28;20020;-70
2022/06/10 01:03:18;;;;;;;9.32;1.65;;;;;;;;;;5323691;28;20505;-70
2022/06/10 01:05:49;;;;;;;9.50;1.77;;;;;;;;;;5323444;28;20027;-70
2022/06/10 01:08:21;;;;;;;11.50;1.55;;;;;;;;;;5323622;28;20024;-71
2022/06/10 01:11:16;;;;;;;6.22;1.05;;;;;;;;;;5324010;28;20027;-70
2022/06/10 01:13:54;;;;;;;9.40;1.05;;;;;;;;;;5322798;28;20016;-71
2022/06/10 01:16:25;;;;;;;6.97;1.30;;;;;;;;;;5323753;28;20054;-70
2022/06/10 01:19:15;;;;;;;10.00;1.17;;;;;;;;;;5323878;28;20075;-71
2022/06/10 01:22:05;;;;;;;7.82;1.05;;;;;;;;;;5322876;28;20379;-70
2022/06/10 01:24:47;;;;;;;10.55;0.90;;;;;;;;;;5323770;28;20051;-70
2022/06/10 01:27:48;;;;;;;8.85;1.15;;;;;;;;;;5322525;28;20064;-71
2022/06/10 01:30:37;;;;;;;7.80;0.95;;;;;;;;;;5323332;28;20044;-71
2022/06/10 01:33:14;;;;;;;6.65;0.75;;;;;;;;;;5323453;28;20153;-71
2022/06/10 01:35:48;;;;;;;10.82;1.00;;;;;;;;;;5322896;28;20470;-70
2022/06/10 01:38:46;;;;;;;11.02;0.75;;;;;;;;;;5323128;28;20030;-71
2022/06/10 01:41:29;;;;;;;8.63;1.23;;;;;;;;;;5317839;28;20514;-71
2022/06/10 01:44:01;;;;;;;7.68;0.90;;;;;;;;;;5323691;28;20020;-71
2022/06/10 01:46:34;;;;;;;7.93;0.93;;;;;;;;;;5323284;28;20024;-71
2022/06/10 01:49:10;;;;;;;8.45;1.33;;;;;;;;;;5322480;28;20024;-70
2022/06/10 01:51:50;;;;;;;10.32;1.08;;;;;;;;;;5323376;28;20032;-71
2022/06/10 01:54:41;;;;;;;7.13;0.80;;;;;;;;;;5323088;28;20048;-71
2022/06/10 01:57:16;;;;;;;12.07;1.88;;;;;;;;;;5323254;28;20047;-71
2022/06/10 01:59:52;;;;;;;8.15;0.90;;;;;;;;;;5323138;28;20023;-71
2022/06/10 02:02:26;;;;;;;7.75;1.00;;;;;;;;;;5322447;28;20016;-71
2022/06/10 02:05:01;;;;;;;8.45;1.40;;;;;;;;;;5323582;28;20020;-71
2022/06/10 02:07:34;;;;;;;7.03;1.08;;;;;;;;;;5323077;28;20059;-71
2022/06/10 02:10:09;;;;;;;7.38;1.38;;;;;;;;;;5322818;28;20375;-71
2022/06/10 02:12:43;;;;;;;7.75;1.13;;;;;;;;;;5323253;28;20019;-71
2022/06/10 02:15:34;;;;;;;8.20;1.50;;;;;;;;;;5323220;28;20494;-71
2022/06/10 02:18:12;;;;;;;6.22;0.73;;;;;;;;;;5304615;28;20040;-71
2022/06/10 02:20:49;;;;;;;14.70;2.00;;;;;;;;;;5323291;28;20108;-71
2022/06/10 02:23:23;;;;;;;10.88;1.13;;;;;;;;;;5322095;28;20073;-71
2022/06/10 02:25:55;;;;;;;7.65;0.88;;;;;;;;;;5324276;28;20019;-71
2022/06/10 02:28:32;;;;;;;8.20;0.75;;;;;;;;;;5326452;28;20024;-71
2022/06/10 02:31:22;;;;;;;7.60;1.20;;;;;;;;;;5326070;28;20022;-71
2022/06/10 02:33:54;;;;;;;10.00;1.25;;;;;;;;;;5326944;28;20089;-71
2022/06/10 02:36:28;;;;;;;8.93;0.90;;;;;;;;;;5326327;28;20020;-70
2022/06/10 02:39:02;;;;;;;10.25;1.33;;;;;;;;;;5326128;28;20024;-71
2022/06/10 02:41:39;;;;;;;7.07;0.70;;;;;;;;;;5326581;28;20024;-70
2022/06/10 02:44:19;;;;;;;8.85;1.00;;;;;;;;;;5325839;28;20015;-71
2022/06/10 02:47:09;;;;;;;11.90;0.88;;;;;;;;;;5326838;28;20390;-71
2022/06/10 02:49:40;;;;;;;6.95;1.27;;;;;;;;;;5326688;28;20418;-71
2022/06/10 02:52:13;;;;;;;11.80;1.23;;;;;;;;;;5325704;28;20055;-71
2022/06/10 02:54:44;;;;;;;6.88;1.00;;;;;;;;;;5326532;28;20378;-71
2022/06/10 02:57:17;;;;;;;9.02;1.10;;;;;;;;;;5326252;28;20024;-71
2022/06/10 03:02:49;;;;;;;6.72;1.10;;;;;;;;;;5326312;28;20031;-70
2022/06/10 03:05:20;;;;;;;7.20;0.80;;;;;;;;;;5325016;28;20046;-71
2022/06/10 03:07:56;;;;;;;6.70;0.80;;;;;;;;;;5326277;28;20378;-70
2022/06/10 03:10:33;;;;;;;5.60;1.00;;;;;;;;;;5325889;28;20020;-71
2022/06/10 03:13:17;;;;;;;9.40;0.98;;;;;;;;;;5325435;28;20024;-71
2022/06/10 03:16:00;;;;;;;6.82;0.90;;;;;;;;;;5326033;28;20050;-71
2022/06/10 03:18:45;;;;;;;8.20;0.70;;;;;;;;;;5325402;28;20399;-71
2022/06/10 03:21:32;;;;;;;10.50;0.90;;;;;;;;;;5325084;28;20130;-71
2022/06/10 03:24:09;;;;;;;7.10;1.00;;;;;;;;;;5325854;28;20390;-71
2022/06/10 03:26:44;;;;;;;9.35;1.20;;;;;;;;;;5324808;28;20049;-70
2022/06/10 03:29:32;;;;;;;6.43;1.23;;;;;;;;;;5325495;28;20015;-71
2022/06/10 03:32:07;;;;;;;8.70;1.08;;;;;;;;;;5325888;28;20487;-71
2022/06/10 03:35:01;;;;;;;7.38;0.70;;;;;;;;;;5324704;28;20022;-71
2022/06/10 03:37:34;;;;;;;8.07;0.95;;;;;;;;;;5311840;28;20530;-71
2022/06/10 03:40:06;;;;;;;15.05;1.00;;;;;;;;;;5324811;28;20011;-71
2022/06/10 03:42:37;;;;;;;9.52;0.80;;;;;;;;;;5325390;28;20019;-71
2022/06/10 03:45:12;;;;;;;8.20;0.70;;;;;;;;;;5325257;28;20016;-72
2022/06/10 03:47:44;;;;;;;8.23;1.00;;;;;;;;;;5324141;28;20299;-72
2022/06/10 03:50:18;;;;;;;11.07;0.98;;;;;;;;;;5325382;28;20012;-72
2022/06/10 03:52:50;;;;;;;7.70;0.90;;;;;;;;;;5325635;28;20559;-71
2022/06/10 03:55:21;;;;;;;8.00;1.15;;;;;;;;;;5323858;28;20110;-72
2022/06/10 03:57:52;;;;;;;5.78;0.80;;;;;;;;;;5325246;28;20012;-71
2022/06/10 04:00:25;;;;;;;6.53;1.25;;;;;;;;;;5324658;28;20039;-71
2022/06/10 04:02:56;;;;;;;11.00;0.80;;;;;;;;;;5324485;28;20019;-72
2022/06/10 04:05:27;;;;;;;11.38;1.15;;;;;;;;;;5324665;28;20478;-71
2022/06/10 04:07:59;;;;;;;8.50;0.73;;;;;;;;;;5325079;28;20107;-71
2022/06/10 04:10:30;;;;;;;10.27;1.00;;;;;;;;;;5323527;28;20030;-72
2022/06/10 04:13:01;;;;;;;6.18;0.95;;;;;;;;;;5324917;28;20751;-71
2022/06/10 04:15:33;;;;;;;6.55;0.85;;;;;;;;;;5323953;28;20018;-71
2022/06/10 04:18:04;;;;;;;9.15;1.10;;;;;;;;;;5324633;28;20039;-71
2022/06/10 04:20:36;;;;;;;5.93;0.63;;;;;;;;;;5324505;28;20035;-71
2022/06/10 04:23:08;;;;;;;6.47;0.90;;;;;;;;;;5323694;28;20016;-71
2022/06/10 04:25:39;;;;;;;10.48;0.95;;;;;;;;;;5324572;28;20016;-72
2022/06/10 04:28:11;;;;;;;7.75;0.75;;;;;;;;;;5324528;28;20123;-71
2022/06/10 04:30:44;;;;;;;7.50;1.08;;;;;;;;;;5323625;28;20023;-72
2022/06/10 04:33:15;;;;;;;6.60;0.80;;;;;;;;;;5324299;28;20023;-71
2022/06/10 04:35:48;;;;;;;5.88;0.73;;;;;;;;;;5324386;28;20022;-71
2022/06/10 04:38:21;;;;;;;8.27;0.65;;;;;;;;;;5323093;28;20058;-71
2022/06/10 04:40:53;;;;;;;7.82;0.60;;;;;;;;;;5324434;28;20007;-71
2022/06/10 04:43:24;;;;;;;7.53;0.90;;;;;;;;;;5323138;28;20015;-70
2022/06/10 04:45:56;;;;;;;8.10;0.90;;;;;;;;;;5324242;28;20060;-72
2022/06/10 04:48:27;;;;;;;8.75;0.60;;;;;;;;;;5323589;28;20366;-71
2022/06/10 04:50:59;;;;;;;5.00;0.52;;;;;;;;;;5323682;28;20011;-71
2022/06/10 04:53:30;;;;;;;6.15;0.70;;;;;;;;;;5323712;28;20019;-72
2022/06/10 04:56:01;;;;;;;6.63;0.80;;;;;;;;;;5324051;28;20030;-72
2022/06/10 04:58:34;;;;;;;10.27;0.90;;;;;;;;;;5322966;28;20095;-72
2022/06/10 05:01:05;;;;;;;6.55;0.90;;;;;;;;;;5323774;28;20270;-71
2022/06/10 05:03:37;;;;;;;8.80;0.77;;;;;;;;;;5323938;28;20434;-72
2022/06/10 05:06:08;;;;;;;6.90;1.00;;;;;;;;;;5323051;28;20137;-71
2022/06/10 05:08:40;;;;;;;8.88;1.30;;;;;;;;;;5323701;28;20269;-71
2022/06/10 05:11:11;;;;;;;7.23;1.40;;;;;;;;;;5323569;28;20095;-72
2022/06/10 05:13:42;;;;;;;8.75;0.70;;;;;;;;;;5322993;28;20261;-71
2022/06/10 05:16:13;;;;;;;7.60;0.82;;;;;;;;;;5323785;28;20022;-71
2022/06/10 05:18:46;;;;;;;8.02;0.93;;;;;;;;;;5322663;28;20138;-71
2022/06/10 05:21:17;;;;;;;7.22;1.20;;;;;;;;;;5323575;28;20028;-71
2022/06/10 05:23:49;;;;;;;12.63;1.05;;;;;;;;;;5323696;28;20162;-71
2022/06/10 05:26:20;;;;;;;10.13;0.75;;;;;;;;;;5322831;28;20106;-72
2022/06/10 05:28:51;;;;;;;7.20;0.90;;;;;;;;;;5324044;28;20018;-71
2022/06/10 05:31:22;;;;;;;8.65;0.82;;;;;;;;;;5323395;28;20015;-72
2022/06/10 05:36:44;;;;;;;9.13;0.93;;;;;;;;;;5323763;28;20118;-71
2022/06/10 05:39:15;;;;;;;8.05;1.30;;;;;;;;;;5323469;28;20103;-71
2022/06/10 05:42:04;;;;;;;7.63;0.95;;;;;;;;;;5323077;28;20012;-71
2022/06/10 05:44:37;;;;;;;7.70;1.65;;;;;;;;;;5323327;28;20442;-72
2022/06/10 05:47:09;;;;;;;11.57;1.42;;;;;;;;;;5322650;28;20019;-71
2022/06/10 05:49:42;;;;;;;9.13;0.68;;;;;;;;;;5323242;28;20107;-71
2022/06/10 05:52:14;;;;;;;7.22;0.75;;;;;;;;;;5323361;28;20020;-72
2022/06/10 05:54:46;;;;;;;7.75;1.27;;;;;;;;;;5322523;28;20464;-71
2022/06/10 05:57:18;;;;;;;11.65;0.80;;;;;;;;;;5323298;28;20043;-72
2022/06/10 05:59:52;;;;;;;7.80;0.60;;;;;;;;;;5323838;28;20450;-72
2022/06/10 06:02:24;;;;;;;6.70;0.88;;;;;;;;;;5325471;28;20093;-72
2022/06/10 06:04:55;;;;;;;6.53;0.77;;;;;;;;;;5327557;28;20378;-72
2022/06/10 06:07:28;;;;;;;6.53;0.95;;;;;;;;;;5326758;28;20531;-72
2022/06/10 06:09:59;;;;;;;8.70;0.85;;;;;;;;;;5326713;28;20084;-72
2022/06/10 06:12:30;;;;;;;9.55;0.77;;;;;;;;;;5326835;28;20015;-71
2022/06/10 06:15:02;;;;;;;7.37;0.60;;;;;;;;;;5326454;28;20026;-73
2022/06/10 06:17:33;;;;;;;6.82;0.98;;;;;;;;;;5326629;28;20293;-72
2022/06/10 06:20:05;;;;;;;6.85;0.80;;;;;;;;;;5327270;28;20065;-72
2022/06/10 06:22:36;;;;;;;7.60;1.05;;;;;;;;;;5325941;28;20024;-73
2022/06/10 06:25:09;;;;;;;6.10;0.80;;;;;;;;;;5327070;28;20091;-73
2022/06/10 06:27:42;;;;;;;3.60;0.55;;;;;;;;;;5326643;28;20031;-72
2022/06/10 06:30:21;;;;;;;3.42;0.43;;;;;;;;;;5325887;28;20420;-73
2022/06/10 06:32:52;;;;;;;6.22;0.70;;;;;;;;;;5326689;28;20080;-73
2022/06/10 06:35:23;;;;;;;5.95;0.60;;;;;;;;;;5326165;28;20458;-73
2022/06/10 06:37:55;;;;;;;7.88;1.13;;;;;;;;;;5325082;28;20023;-72
2022/06/10 06:40:26;;;;;;;4.70;0.43;;;;;;;;;;5325759;28;20012;-72
2022/06/10 06:42:57;;;;;;;3.38;0.70;;;;;;;;;;5326125;28;20020;-72
2022/06/10 06:45:29;;;;;;;5.43;0.50;;;;;;;;;;5325985;28;20253;-72
2022/06/10 06:48:00;;;;;;;6.25;0.60;;;;;;;;;;5326599;28;20504;-72
2022/06/10 06:50:32;;;;;;;5.72;0.45;;;;;;;;;;5325467;28;20016;-72
2022/06/10 06:53:03;;;;;;;8.63;0.90;;;;;;;;;;5326042;28;20098;-72
2022/06/10 06:55:36;;;;;;;9.38;0.50;;;;;;;;;;5326297;28;20015;-72
2022/06/10 06:58:09;;;;;;;6.57;0.63;;;;;;;;;;5325529;28;20360;-72
2022/06/10 07:00:40;;;;;;;4.82;0.40;;;;;;;;;;5326262;28;20019;-72
2022/06/10 07:03:11;;;;;;;3.83;0.40;;;;;;;;;;5326170;28;20377;-73
2022/06/10 07:05:43;;;;;;;3.70;0.70;;;;;;;;;;5325218;28;20019;-72
2022/06/10 07:08:14;;;;;;;4.45;0.60;;;;;;;;;;5325782;28;20283;-72
2022/06/10 07:10:45;;;;;;;5.40;0.75;;;;;;;;;;5325821;28;20367;-72
2022/06/10 07:13:17;;;;;;;4.68;0.50;;;;;;;;;;5324851;28;20053;-72
2022/06/10 07:15:48;;;;;;;5.37;0.50;;;;;;;;;;5325988;28;20015;-73
2022/06/10 07:18:19;;;;;;;7.57;0.47;;;;;;;;;;5324676;28;20290;-74
2022/06/10 07:20:50;;;;;;;4.47;0.80;;;;;;;;;;5325745;28;20253;-75
2022/06/10 07:23:21;;;;;;;6.63;0.52;;;;;;;;;;5325540;28;20775;-74
2022/06/10 07:25:53;;;;;;;5.13;0.60;;;;;;;;;;5325279;28;20026;-74
2022/06/10 07:28:25;;;;;;;4.32;0.50;;;;;;;;;;5325267;28;20454;-75
2022/06/10 07:30:57;;;;;;;5.57;0.40;;;;;;;;;;5325858;28;20530;-75
2022/06/10 07:33:28;;;;;;;7.63;0.77;;;;;;;;;;5324470;28;20026;-75
2022/06/10 07:35:59;;;;;;;3.83;0.50;;;;;;;;;;5325900;28;20095;-75
2022/06/10 07:38:31;;;;;;;5.43;0.50;;;;;;;;;;5325334;28;20138;-74
2022/06/10 07:43:52;;;;;;;6.57;0.45;;;;;;;;;;5326088;28;20390;-74
2022/06/10 07:46:24;;;;;;;4.75;0.43;;;;;;;;;;5324150;28;20027;-74
2022/06/10 07:48:55;;;;;;;4.43;0.40;;;;;;;;;;5325730;28;20016;-75
2022/06/10 07:51:26;;;;;;;6.13;0.80;;;;;;;;;;5324946;28;20020;-74
2022/06/10 07:53:57;;;;;;;6.68;0.50;;;;;;;;;;5324996;28;20559;-74
2022/06/10 07:56:28;;;;;;;7.57;1.33;;;;;;;;;;5324973;28;20100;-75
2022/06/10 07:59:00;;;;;;;2.57;0.37;;;;;;;;;;5325337;28;20277;-73
2022/06/10 08:01:31;;;;;;;4.90;0.40;;;;;;;;;;5324060;28;20715;-74
2022/06/10 08:04:02;;;;;;;6.25;0.60;;;;;;;;;;5324885;28;20011;-76
2022/06/10 08:06:35;;;;;;;2.60;0.40;;;;;;;;;;5325001;28;20069;-75
2022/06/10 08:09:06;;;;;;;6.32;0.60;;;;;;;;;;5324236;28;20019;-75
2022/06/10 08:11:38;;;;;;;4.32;0.30;;;;;;;;;;5324787;28;20429;-76
2022/06/10 08:14:09;;;;;;;3.65;0.28;;;;;;;;;;5324601;28;20023;-75
2022/06/10 08:16:41;;;;;;;4.03;0.43;;;;;;;;;;5324336;28;20019;-75
2022/06/10 08:19:12;;;;;;;5.27;0.40;;;;;;;;;;5324598;28;20423;-74
2022/06/10 08:24:33;;;;;;;8.35;0.80;;;;;;;;;;5323755;28;20024;-75
2022/06/10 08:27:05;;;;;;;5.88;0.90;;;;;;;;;;5324589;28;20355;-76
2022/06/10 08:29:36;;;;;;;7.97;0.60;;;;;;;;;;5323880;28;20137;-76
2022/06/10 08:32:08;;;;;;;5.87;0.60;;;;;;;;;;5324220;28;20098;-73
2022/06/10 08:34:42;;;;;;;4.07;0.50;;;;;;;;;;5324479;28;20294;-73
2022/06/10 08:37:13;;;;;;;6.45;0.90;;;;;;;;;;5323395;28;20375;-72
2022/06/10 08:39:44;;;;;;;6.18;1.00;;;;;;;;;;5324460;28;20022;-73
2022/06/10 08:42:15;;;;;;;8.25;0.63;;;;;;;;;;5324387;28;20008;-74
2022/06/10 08:44:51;;;;;;;5.63;0.70;;;;;;;;;;5323430;28;20032;-74
2022/06/10 08:47:32;;;;;;;10.85;1.20;;;;;;;;;;5323620;28;20103;-73
2022/06/10 08:50:09;;;;;;;6.10;0.60;;;;;;;;;;5323503;28;20152;-74
2022/06/10 08:52:47;;;;;;;10.20;2.50;;;;;;;;;;5324105;28;20031;-73
2022/06/10 08:55:21;;;;;;;8.38;0.80;;;;;;;;;;5323961;28;20531;-72
2022/06/10 08:57:53;;;;;;;6.28;0.80;;;;;;;;;;5323367;28;20023;-71
2022/06/10 09:00:27;;;;;;;7.57;0.98;;;;;;;;;;5323344;28;20016;-72
2022/06/10 09:03:11;;;;;;;7.32;0.82;;;;;;;;;;5324367;28;20024;-71
2022/06/10 09:05:49;;;;;;;6.57;1.15;;;;;;;;;;5323044;28;20508;-71
2022/06/10 09:08:22;;;;;;;5.68;0.70;;;;;;;;;;5323397;28;20024;-72
2022/06/10 09:11:05;;;;;;;7.53;0.95;;;;;;;;;;5323641;28;20722;-72
2022/06/10 09:13:38;;;;;;;7.63;0.75;;;;;;;;;;5323904;28;20023;-72
2022/06/10 09:16:25;;;;;;;7.75;0.70;;;;;;;;;;5323784;28;20351;-72
2022/06/10 09:19:04;;;;;;;3.75;0.50;;;;;;;;;;5323131;28;20402;-72
2022/06/10 09:21:40;;;;;;;8.35;0.88;;;;;;;;;;5323808;28;20471;-72
2022/06/10 09:24:33;;;;;;;5.45;1.45;;;;;;;;;;5323863;28;20371;-72
2022/06/10 09:27:17;;;;;;;6.43;0.80;;;;;;;;;;5322773;28;20059;-71
2022/06/10 09:29:48;;;;;;;10.05;0.85;;;;;;;;;;5323184;28;20046;-73
2022/06/10 09:32:30;;;;;;;6.30;1.10;;;;;;;;;;5322527;28;20099;-73
2022/06/10 09:35:05;;;;;;;5.95;0.60;;;;;;;;;;5324786;28;20026;-72
2022/06/10 09:37:45;;;;;;;5.75;0.75;;;;;;;;;;5327721;28;20076;-71
2022/06/10 09:40:36;;;;;;;9.40;0.90;;;;;;;;;;5327131;28;20027;-72
2022/06/10 09:43:26;;;;;;;8.85;1.00;;;;;;;;;;5326978;28;20027;-72
2022/06/10 09:46:34;;;;;;;5.68;0.60;;;;;;;;;;5327181;28;20020;-73
2022/06/10 09:49:19;;;;;;;5.90;0.70;;;;;;;;;;5220964;28;20079;-73
2022/06/10 09:51:57;;;;;;;6.22;0.60;;;;;;;;;;5321106;28;20104;-72
2022/06/10 09:54:31;;;;;;;7.60;0.77;;;;;;;;;;5326604;28;20028;-72
2022/06/10 09:57:05;;;;;;;6.07;0.88;;;;;;;;;;5328096;28;20121;-73
2022/06/10 10:00:00;;;;;;;7.70;1.08;;;;;;;;;;5327562;28;20024;-73
2022/06/10 10:02:50;;;;;;;4.95;0.70;;;;;;;;;;5322536;27;20472;-73
2022/06/10 10:05:24;;;;;;;4.00;0.60;;;;;;;;;;5346764;27;20023;-71
2022/06/10 10:07:55;;;;;;;7.43;0.93;;;;;;;;;;5347883;27;20419;-72
2022/06/10 10:10:32;;;;;;;5.18;0.70;;;;;;;;;;5347670;27;20019;-72
2022/06/10 10:13:06;;;;;;;8.13;0.93;;;;;;;;;;5348380;27;20026;-72
2022/06/10 10:15:56;;;;;;;10.90;1.40;;;;;;;;;;5347600;27;20064;-72
2022/06/10 10:18:33;;;;;;;6.55;1.00;;;;;;;;;;5347943;27;20043;-73
2022/06/10 10:21:09;;;;;;;8.63;1.00;;;;;;;;;;5347703;27;20096;-73
2022/06/10 10:23:46;;;;;;;6.05;0.80;;;;;;;;;;5348258;27;20015;-73
2022/06/10 10:26:44;;;;;;;7.53;1.10;;;;;;;;;;5348516;27;20023;-73
2022/06/10 10:29:17;;;;;;;10.30;1.17;;;;;;;;;;5336089;27;20038;-74
2022/06/10 10:31:58;;;;;;;7.57;1.02;;;;;;;;;;5337360;27;20023;-73
2022/06/10 10:34:34;;;;;;;9.32;0.90;;;;;;;;;;5326636;28;20110;-73
2022/06/10 10:37:21;;;;;;;7.38;1.27;;;;;;;;;;5326175;28;20095;-73
2022/06/10 10:39:54;;;;;;;8.25;0.85;;;;;;;;;;5327422;28;20015;-73
2022/06/10 10:42:34;;;;;;;12.30;0.75;;;;;;;;;;5325537;28;20073;-74
2022/06/10 10:45:10;;;;;;;6.25;1.20;;;;;;;;;;5326581;28;20016;-74
2022/06/10 10:47:48;;;;;;;9.30;1.15;;;;;;;;;;5325685;28;20181;-74
2022/06/10 10:50:21;;;;;;;6.88;0.70;;;;;;;;;;5325301;28;20015;-74
2022/06/10 10:52:52;;;;;;;8.48;1.00;;;;;;;;;;5326414;28;20035;-74
2022/06/10 10:55:27;;;;;;;5.90;0.80;;;;;;;;;;5326015;28;20023;-74
2022/06/10 10:58:08;;;;;;;7.88;0.90;;;;;;;;;;5326046;28;20627;-74
2022/06/10 11:00:53;;;;;;;9.85;0.80;;;;;;;;;;5326185;28;20016;-74
2022/06/10 11:03:26;;;;;;;8.40;1.00;;;;;;;;;;5324811;28;20023;-73
2022/06/10 11:05:59;;;;;;;8.98;1.33;;;;;;;;;;5326073;28;20023;-74
2022/06/10 11:08:34;;;;;;;7.65;1.40;;;;;;;;;;5325836;28;20142;-73
2022/06/10 11:11:05;;;;;;;9.35;1.10;;;;;;;;;;5325400;28;20020;-74
2022/06/10 11:13:39;;;;;;;9.37;1.07;;;;;;;;;;5326014;28;20087;-73
2022/06/10 11:16:26;;;;;;;8.52;1.20;;;;;;;;;;5325964;28;20430;-73
2022/06/10 11:19:00;;;;;;;9.55;1.10;;;;;;;;;;5325228;28;20078;-72
2022/06/10 11:21:44;;;;;;;8.70;1.10;;;;;;;;;;5325485;28;20048;-74
2022/06/10 11:24:17;;;;;;;9.85;1.00;;;;;;;;;;5324890;28;20020;-74
2022/06/10 11:26:58;;;;;;;7.47;0.90;;;;;;;;;;5325885;28;20446;-74
2022/06/10 11:29:29;;;;;;;6.68;0.80;;;;;;;;;;5325310;28;20473;-74
2022/06/10 11:32:02;;;;;;;6.53;1.23;;;;;;;;;;5324735;28;20019;-75
2022/06/10 11:34:36;;;;;;;7.43;1.10;;;;;;;;;;5325338;28;20027;-75
2022/06/10 11:37:21;;;;;;;8.52;1.23;;;;;;;;;;5325528;28;20020;-76
2022/06/10 11:39:59;;;;;;;5.25;0.70;;;;;;;;;;5325195;28;20015;-75
2022/06/10 11:42:34;;;;;;;9.00;0.93;;;;;;;;;;5324114;28;20022;-75
2022/06/10 11:45:17;;;;;;;6.70;0.73;;;;;;;;;;5324516;28;20023;-75
2022/06/10 11:48:09;;;;;;;11.38;1.48;;;;;;;;;;5324900;28;20087;-75
2022/06/10 11:50:50;;;;;;;8.38;0.82;;;;;;;;;;5307757;28;20111;-75
2022/06/10 11:53:30;;;;;;;7.05;0.60;;;;;;;;;;5324003;28;20026;-75
2022/06/10 12:01:47;;;;;;;5.82;1.15;;;;;;;;;;5323933;28;20020;-76
2022/06/10 12:04:21;;;;;;;6.57;0.93;;;;;;;;;;5324612;28;20019;-76
2022/06/10 12:06:56;;;;;;;8.88;0.80;;;;;;;;;;5324522;28;20024;-76
2022/06/10 12:09:29;;;;;;;6.40;0.82;;;;;;;;;;5324678;28;20069;-76
2022/06/10 12:12:02;;;;;;;4.03;0.57;;;;;;;;;;5324665;28;20047;-75
2022/06/10 12:14:37;;;;;;;7.72;0.90;;;;;;;;;;5323756;28;20072;-76
2022/06/10 12:17:11;;;;;;;5.97;0.90;;;;;;;;;;5324422;28;20032;-76
2022/06/10 12:19:47;;;;;;;5.72;0.80;;;;;;;;;;5324610;28;20471;-76
2022/06/10 12:22:19;;;;;;;5.78;0.68;;;;;;;;;;5323261;28;20073;-76
2022/06/10 12:24:50;;;;;;;6.93;0.70;;;;;;;;;;5325209;28;20356;-76
2022/06/10 12:27:33;;;;;;;4.80;0.63;;;;;;;;;;5323952;28;20080;-76
2022/06/10 12:30:16;;;;;;;6.68;1.00;;;;;;;;;;5324632;28;20285;-76
2022/06/10 12:32:51;;;;;;;6.45;0.73;;;;;;;;;;5324299;28;20034;-75
2022/06/10 12:35:28;;;;;;;5.25;0.60;;;;;;;;;;5323253;28;20020;-75
2022/06/10 12:38:20;;;;;;;3.85;0.50;;;;;;;;;;5323904;28;20018;-75
2022/06/10 12:40:56;;;;;;;4.18;0.60;;;;;;;;;;5323859;28;20466;-75
2022/06/10 12:43:32;;;;;;;5.95;0.52;;;;;;;;;;5323172;28;20348;-78
2022/06/10 12:46:13;;;;;;;5.60;0.60;;;;;;;;;;5324259;28;20102;-75
2022/06/10 12:48:46;;;;;;;6.75;0.82;;;;;;;;;;5323329;28;20372;-74
2022/06/10 12:51:36;;;;;;;4.60;0.50;;;;;;;;;;5322817;28;20015;-75
2022/06/10 12:54:16;;;;;;;4.38;0.50;;;;;;;;;;5323352;28;20068;-75
2022/06/10 12:56:47;;;;;;;7.50;0.90;;;;;;;;;;5323176;28;20099;-75
2022/06/10 12:59:23;;;;;;;5.73;0.47;;;;;;;;;;5323301;28;20107;-76
2022/06/10 13:01:54;;;;;;;8.23;0.70;;;;;;;;;;5323016;28;20261;-76
2022/06/10 13:04:25;;;;;;;7.78;0.60;;;;;;;;;;5322910;28;20035;-75
2022/06/10 13:06:58;;;;;;;8.48;0.68;;;;;;;;;;5324136;28;20031;-76
2022/06/10 13:09:29;;;;;;;7.07;0.60;;;;;;;;;;5323248;28;20024;-75
2022/06/10 13:12:20;;;;;;;7.90;0.60;;;;;;;;;;5323044;28;20034;-75
2022/06/10 13:15:10;;;;;;;8.50;0.60;;;;;;;;;;5323984;28;20031;-75
2022/06/10 13:18:11;;;;;;;7.65;0.70;;;;;;;;;;5322635;28;20105;-75
2022/06/10 13:20:43;;;;;;;6.40;1.08;;;;;;;;;;5301304;28;20040;-75
2022/06/10 13:23:22;;;;;;;6.00;0.90;;;;;;;;;;5323614;28;20090;-76
2022/06/10 13:26:02;;;;;;;5.88;1.10;;;;;;;;;;5322909;28;20098;-76
2022/06/10 13:28:38;;;;;;;6.05;0.80;;;;;;;;;;5323293;28;20038;-76
2022/06/10 13:31:16;;;;;;;6.20;0.70;;;;;;;;;;5322457;28;20153;-76
2022/06/10 13:34:00;;;;;;;4.70;1.02;;;;;;;;;;5323695;28;20028;-76
2022/06/10 13:36:34;;;;;;;8.15;1.10;;;;;;;;;;5323321;28;20479;-76
2022/06/10 13:39:06;;;;;;;5.10;0.70;;;;;;;;;;5322526;28;20054;-76
2022/06/10 13:41:52;;;;;;;7.25;1.15;;;;;;;;;;5323354;28;20019;-74
2022/06/10 13:44:31;;;;;;;9.13;0.70;;;;;;;;;;5323255;28;20016;-77
2022/06/10 13:47:17;;;;;;;6.68;0.80;;;;;;;;;;5322575;28;20028;-78
2022/06/10 13:50:17;;;;;;;6.93;0.60;;;;;;;;;;5323233;28;20027;-76
2022/06/10 13:52:48;;;;;;;7.32;0.70;;;;;;;;;;5322597;28;20016;-75
2022/06/10 13:55:28;;;;;;;6.80;0.90;;;;;;;;;;5323125;28;20205;-72
2022/06/10 13:57:59;;;;;;;8.77;0.80;;;;;;;;;;5322862;28;20043;-75
2022/06/10 14:00:32;;;;;;;6.65;1.40;;;;;;;;;;5322154;28;20058;-72
2022/06/10 14:03:04;;;;;;;7.10;1.17;;;;;;;;;;5323463;28;20019;-72
2022/06/10 14:05:36;;;;;;;7.40;0.82;;;;;;;;;;5323181;28;20106;-72
2022/06/10 14:08:15;;;;;;;3.80;0.50;;;;;;;;;;5322405;28;20118;-72
2022/06/10 14:10:49;;;;;;;8.43;0.90;;;;;;;;;;5323182;28;20020;-72
2022/06/10 14:13:22;;;;;;;5.32;0.80;;;;;;;;;;5322324;28;20912;-72
2022/06/10 14:15:55;;;;;;;7.28;0.70;;;;;;;;;;5323372;28;20167;-72
2022/06/10 14:18:29;;;;;;;8.68;0.98;;;;;;;;;;5322339;28;20048;-71
2022/06/10 14:21:01;;;;;;;4.88;0.90;;;;;;;;;;5322275;28;20111;-71
2022/06/10 14:23:33;;;;;;;6.05;0.75;;;;;;;;;;5326234;28;20030;-71
2022/06/10 14:26:04;;;;;;;7.07;0.90;;;;;;;;;;5326633;28;20020;-71
2022/06/10 14:28:36;;;;;;;4.82;0.90;;;;;;;;;;5326024;28;20024;-71
2022/06/10 14:31:27;;;;;;;7.53;1.13;;;;;;;;;;5326765;28;20103;-71
2022/06/10 14:33:59;;;;;;;6.32;1.42;;;;;;;;;;5327356;28;20023;-71
2022/06/10 14:36:31;;;;;;;4.43;0.88;;;;;;;;;;5325830;28;20163;-71
2022/06/10 14:39:06;;;;;;;8.32;1.10;;;;;;;;;;5326775;28;20051;-71
2022/06/10 14:41:53;;;;;;;6.65;1.83;;;;;;;;;;5326082;28;20019;-73
2022/06/10 14:44:29;;;;;;;8.32;1.20;;;;;;;;;;5326424;28;20034;-71
2022/06/10 14:47:11;;;;;;;7.05;1.27;;;;;;;;;;5326450;28;20023;-71
2022/06/10 14:49:52;;;;;;;5.53;1.02;;;;;;;;;;5325535;28;20024;-71
2022/06/10 14:52:23;;;;;;;9.82;1.17;;;;;;;;;;5325816;28;20102;-71
2022/06/10 14:54:55;;;;;;;6.85;0.90;;;;;;;;;;5326553;28;20091;-72
2022/06/10 14:57:28;;;;;;;11.77;1.52;;;;;;;;;;5325132;28;20065;-71
2022/06/10 14:59:59;;;;;;;5.95;1.08;;;;;;;;;;5326562;28;20026;-71
2022/06/10 15:02:31;;;;;;;5.13;1.00;;;;;;;;;;5325024;28;20130;-72
2022/06/10 15:07:52;;;;;;;6.05;1.00;;;;;;;;;;5326618;28;20070;-72
2022/06/10 15:10:23;;;;;;;9.13;1.00;;;;;;;;;;5324904;28;20047;-72
2022/06/10 15:12:54;;;;;;;8.13;1.20;;;;;;;;;;5326040;28;20261;-72
2022/06/10 15:15:26;;;;;;;8.05;1.38;;;;;;;;;;5325091;28;20369;-72
2022/06/10 15:17:57;;;;;;;6.60;1.20;;;;;;;;;;5325471;28;20067;-72
2022/06/10 15:20:29;;;;;;;8.55;0.98;;;;;;;;;;5325467;28;20043;-71
2022/06/10 15:23:00;;;;;;;5.38;0.68;;;;;;;;;;5325820;28;20015;-71
2022/06/10 15:25:38;;;;;;;8.07;0.75;;;;;;;;;;5324766;28;20482;-71
2022/06/10 15:28:14;;;;;;;4.95;0.60;;;;;;;;;;5325655;28;20039;-71
2022/06/10 15:30:46;;;;;;;8.80;0.75;;;;;;;;;;5324775;28;20022;-72
2022/06/10 15:33:19;;;;;;;4.32;0.70;;;;;;;;;;5325107;28;20016;-71
2022/06/10 15:41:35;;;;;;;5.70;0.70;;;;;;;;;;5325345;28;20043;-71
2022/06/10 15:44:16;;;;;;;6.43;0.90;;;;;;;;;;5325262;28;20489;-71
2022/06/10 15:46:49;;;;;;;6.38;0.90;;;;;;;;;;5324303;28;20076;-71
2022/06/10 15:49:20;;;;;;;5.43;0.60;;;;;;;;;;5324646;28;20216;-72
2022/06/10 15:51:59;;;;;;;5.97;0.50;;;;;;;;;;5324692;28;20020;-72
2022/06/10 15:54:33;;;;;;;7.05;0.60;;;;;;;;;;5324713;28;20016;-73
2022/06/10 15:57:06;;;;;;;3.70;0.52;;;;;;;;;;5324767;28;20019;-74